Time;durP1;ratioP1;P1;durP2;ratioP2;P2;SDS_P1;SDS_P2;PMS_P1;PMS_P2;Temp;Humidity;BMP_temperature;BMP_pressure;BME280_temperature;BME280_humidity;BME280_pressure;Samples;Min_cycle;Max_cycle;Signal;HPM_P1;HPM_P2
2023/03/06 00:01:04;;;;;;;6.37;3.83;;;3.60;99.90;;;4.22;100.00;97367.41;5042868;28;20483;-75
2023/03/06 00:03:35;;;;;;;4.77;3.37;;;3.50;99.90;;;4.19;100.00;97368.56;5039521;28;20478;-76
2023/03/06 00:06:04;;;;;;;11.20;4.00;;;3.50;99.90;;;4.19;100.00;97365.97;5042515;28;20475;-76
2023/03/06 00:08:33;;;;;;;4.00;2.90;;;3.40;99.90;;;4.18;100.00;97364.34;5047131;28;20469;-76
2023/03/06 00:11:04;;;;;;;7.30;4.03;;;3.40;99.90;;;4.16;100.00;97375.84;5047544;28;20469;-75
2023/03/06 00:13:33;;;;;;;8.67;4.37;;;3.30;99.90;;;4.16;100.00;97366.31;5044659;28;20556;-76
2023/03/06 00:16:04;;;;;;;5.37;3.90;;;3.40;99.90;;;4.17;100.00;97370.47;5044652;28;20474;-76
2023/03/06 00:18:35;;;;;;;7.73;3.43;;;3.40;99.90;;;4.15;100.00;97364.69;5044930;28;20462;-76
2023/03/06 00:21:07;;;;;;;5.23;3.67;;;3.40;99.90;;;4.18;100.00;97359.16;5045513;28;20488;-76
2023/03/06 00:23:38;;;;;;;5.20;3.53;;;3.50;99.90;;;4.18;100.00;97363.53;5044448;28;20560;-75
2023/03/06 00:26:09;;;;;;;5.20;3.60;;;3.40;99.90;;;4.16;100.00;97353.38;5046654;28;20529;-76
2023/03/06 00:28:40;;;;;;;4.50;3.30;;;3.40;99.90;;;4.15;100.00;97351.75;5045552;28;20510;-75
2023/03/06 00:31:10;;;;;;;7.37;3.30;;;3.40;99.90;;;4.12;100.00;97346.91;5046612;28;20461;-76
2023/03/06 00:33:42;;;;;;;4.80;3.33;;;3.30;99.90;;;4.13;100.00;97343.31;5046958;28;20963;-76
2023/03/06 00:36:13;;;;;;;7.77;3.47;;;3.30;99.90;;;4.13;100.00;97343.31;5043725;28;20465;-76
2023/03/06 00:38:43;;;;;;;4.23;3.13;;;3.30;99.90;;;4.11;100.00;97340.09;5044846;28;20486;-76
2023/03/06 00:41:13;;;;;;;6.10;3.97;;;3.30;99.90;;;4.10;100.00;97333.31;5046087;28;20576;-76
2023/03/06 00:43:43;;;;;;;5.60;3.83;;;3.30;99.90;;;4.09;100.00;97331.72;5045818;28;20995;-76
2023/03/06 00:46:11;;;;;;;9.10;4.47;;;3.30;99.90;;;4.04;100.00;97316.69;5045501;28;20546;-76
2023/03/06 00:48:42;;;;;;;6.00;4.40;;;3.20;99.90;;;4.01;100.00;97316.19;5046831;28;20462;-75
2023/03/06 00:51:12;;;;;;;5.60;3.83;;;3.20;99.90;;;3.98;100.00;97324.28;5046360;28;20474;-76
2023/03/06 00:53:41;;;;;;;5.57;3.97;;;3.20;99.90;;;4.00;100.00;97312.78;5043570;28;20470;-77
2023/03/06 00:56:11;;;;;;;5.40;3.70;;;3.30;99.90;;;3.99;100.00;97311.16;5045051;28;20464;-76
2023/03/06 00:58:40;;;;;;;4.53;3.33;;;3.20;99.90;;;4.00;100.00;97301.63;5046019;28;20497;-75
2023/03/06 01:01:09;;;;;;;8.80;4.00;;;3.20;99.90;;;3.93;100.00;97308.44;5045450;28;20554;-75
2023/03/06 01:03:38;;;;;;;9.07;3.80;;;3.10;99.90;;;3.95;100.00;97301.34;5044689;28;20466;-76
2023/03/06 01:06:09;;;;;;;7.27;3.77;;;3.20;99.90;;;3.99;100.00;97305.22;5045455;28;20454;-76
2023/03/06 01:08:39;;;;;;;5.23;3.73;;;3.20;99.90;;;3.87;100.00;97296.97;5044990;28;20549;-75
2023/03/06 01:11:09;;;;;;;5.40;4.13;;;3.10;99.90;;;3.92;100.00;97299.09;5044517;28;21014;-76
2023/03/06 01:13:40;;;;;;;6.20;4.53;;;3.20;99.90;;;3.98;100.00;97290.66;5046209;28;20465;-76
2023/03/06 01:16:13;;;;;;;6.40;4.13;;;3.30;99.90;;;4.00;100.00;97292.09;5046652;28;20467;-75
2023/03/06 01:18:43;;;;;;;7.57;4.03;;;3.30;99.90;;;4.02;100.00;97286.78;5046010;28;20471;-76
2023/03/06 01:21:14;;;;;;;4.90;3.90;;;3.30;99.90;;;4.05;100.00;97283.84;5046930;28;20455;-76
2023/03/06 01:23:44;;;;;;;5.13;4.00;;;3.40;99.90;;;4.01;100.00;97280.78;5046660;28;20462;-76
2023/03/06 01:26:14;;;;;;;6.47;3.60;;;3.30;99.90;;;4.04;100.00;97282.25;5047898;28;20986;-76
2023/03/06 01:28:44;;;;;;;5.37;3.70;;;3.30;99.90;;;4.05;100.00;97283.84;5047249;28;20465;-76
2023/03/06 01:31:14;;;;;;;7.30;4.43;;;3.30;99.90;;;4.05;100.00;97279.50;5047312;28;20522;-76
2023/03/06 01:33:45;;;;;;;5.93;4.10;;;3.30;99.90;;;4.08;100.00;97283.53;5045094;28;21245;-75
2023/03/06 01:36:17;;;;;;;7.03;4.20;;;3.30;99.90;;;4.02;100.00;97279.03;5047493;28;20883;-76
2023/03/06 01:38:47;;;;;;;7.40;4.27;;;3.30;99.90;;;4.03;100.00;97271.09;5046964;28;20466;-75
2023/03/06 01:41:16;;;;;;;10.67;4.57;;;3.30;99.90;;;4.01;100.00;97267.06;5046537;28;20485;-75
2023/03/06 01:43:48;;;;;;;5.47;3.57;;;3.20;99.90;;;4.03;100.00;97260.72;5045235;28;20833;-76
2023/03/06 01:46:53;;;;;;;8.07;4.50;;;3.30;99.90;;;4.04;100.00;97257.19;5046565;28;20473;-76
2023/03/06 01:49:29;;;;;;;9.90;4.07;;;3.20;99.90;;;4.05;100.00;97251.03;5042420;28;20499;-76
2023/03/06 01:52:06;;;;;;;9.27;4.70;;;3.30;99.90;;;4.03;100.00;97247.00;5042978;28;21467;-76
2023/03/06 01:54:42;;;;;;;5.63;4.10;;;3.20;99.90;;;3.95;100.00;97247.03;5044704;28;20472;-76
2023/03/06 01:57:17;;;;;;;8.63;4.10;;;3.10;99.90;;;3.92;100.00;97252.53;5044874;28;20490;-75
2023/03/06 01:59:53;;;;;;;10.90;3.83;;;3.10;99.90;;;3.94;100.00;97235.88;5044240;28;20484;-75
2023/03/06 02:02:24;;;;;;;8.17;4.33;;;3.10;99.90;;;3.96;100.00;97244.25;5043986;28;20501;-75
2023/03/06 02:04:55;;;;;;;6.50;4.47;;;3.10;99.90;;;4.00;100.00;97239.56;5042121;28;20458;-76
2023/03/06 02:07:27;;;;;;;8.03;4.67;;;3.20;99.90;;;3.97;100.00;97232.97;5043554;28;20469;-76
2023/03/06 02:09:58;;;;;;;4.40;3.60;;;3.20;99.90;;;3.93;100.00;97230.84;5039874;28;20457;-76
2023/03/06 02:12:27;;;;;;;7.00;4.93;;;3.10;99.90;;;3.96;100.00;97228.75;5043177;28;20846;-76
2023/03/06 02:14:56;;;;;;;10.13;5.50;;;3.20;99.90;;;3.98;100.00;97226.00;5044727;28;20565;-75
2023/03/06 02:17:25;;;;;;;7.93;4.80;;;3.30;99.90;;;3.95;100.00;97228.94;5044859;28;20469;-76
2023/03/06 02:20:06;;;;;;;6.13;3.80;;;3.20;99.90;;;3.94;100.00;97229.91;5045681;28;20561;-77
2023/03/06 02:22:47;;;;;;;9.57;3.63;;;3.20;99.90;;;3.97;100.00;97232.97;5045430;28;20485;-76
2023/03/06 02:25:33;;;;;;;7.17;4.37;;;3.20;99.90;;;3.97;100.00;97219.22;5046242;28;20495;-76
2023/03/06 02:28:05;;;;;;;4.63;3.80;;;3.20;99.90;;;4.00;100.00;97221.47;5041926;28;21105;-76
2023/03/06 02:30:37;;;;;;;7.13;3.97;;;3.30;99.90;;;3.95;100.00;97216.00;5044273;28;21014;-75
2023/03/06 02:33:07;;;;;;;6.30;4.37;;;3.20;99.90;;;3.97;100.00;97216.63;5044895;28;20472;-76
2023/03/06 02:35:40;;;;;;;8.33;4.37;;;3.20;99.90;;;3.96;100.00;97218.41;5043951;28;20484;-76
2023/03/06 02:38:14;;;;;;;10.20;4.47;;;3.20;99.90;;;3.95;100.00;97211.63;5044244;28;20529;-76
2023/03/06 02:40:51;;;;;;;8.73;4.40;;;3.30;99.90;;;3.92;100.00;97206.00;5043283;28;20461;-76
2023/03/06 02:43:25;;;;;;;6.00;4.47;;;3.20;99.90;;;3.93;100.00;97203.22;5042452;28;20496;-76
2023/03/06 02:45:54;;;;;;;8.07;4.40;;;3.20;99.90;;;3.92;100.00;97208.56;5043103;28;20582;-76
2023/03/06 02:48:24;;;;;;;7.00;4.23;;;3.20;99.90;;;3.92;100.00;97208.56;5042688;28;20445;-76
2023/03/06 02:50:55;;;;;;;5.20;3.90;;;3.10;99.90;;;3.93;100.00;97199.81;5042621;28;20468;-76
2023/03/06 02:53:25;;;;;;;6.27;4.23;;;3.20;99.90;;;3.89;100.00;97193.38;5043361;28;20458;-75
2023/03/06 02:55:56;;;;;;;13.10;4.77;;;3.10;99.90;;;3.92;100.00;97200.81;5045491;28;20463;-75
2023/03/06 02:58:25;;;;;;;7.87;4.53;;;3.20;99.90;;;3.92;100.00;97193.84;5044463;28;20470;-76
2023/03/06 03:00:54;;;;;;;5.97;3.90;;;3.20;99.90;;;3.91;100.00;97194.03;5045075;28;21031;-76
2023/03/06 03:03:25;;;;;;;12.67;5.13;;;3.20;99.90;;;3.91;100.00;97194.84;5044595;28;20493;-76
2023/03/06 03:05:56;;;;;;;5.83;3.80;;;3.20;99.90;;;3.93;100.00;97192.88;5044123;28;20552;-75
2023/03/06 03:08:26;;;;;;;6.73;4.40;;;3.20;99.90;;;3.95;100.00;97195.31;5045357;28;20548;-78
2023/03/06 03:10:58;;;;;;;5.47;4.37;;;3.20;99.90;;;3.92;100.00;97186.09;5044805;28;20474;-75
2023/03/06 03:13:27;;;;;;;6.90;4.20;;;3.20;99.90;;;3.89;100.00;97193.38;5044717;28;20548;-75
2023/03/06 03:16:03;;;;;;;8.83;4.23;;;3.10;99.90;;;3.88;100.00;97181.44;5045112;28;20463;-75
2023/03/06 03:18:32;;;;;;;10.37;4.47;;;3.10;99.90;;;3.91;100.00;97183.69;5045356;28;20521;-76
2023/03/06 03:21:02;;;;;;;7.43;4.00;;;3.20;99.90;;;3.89;100.00;97180.44;5045279;28;20465;-75
2023/03/06 03:23:32;;;;;;;8.60;4.27;;;3.20;99.90;;;3.90;100.00;97184.66;5044430;28;20504;-76
2023/03/06 03:26:10;;;;;;;6.37;4.53;;;3.20;99.90;;;3.89;100.00;97181.25;5043442;28;21088;-76
2023/03/06 03:28:39;;;;;;;5.40;3.80;;;3.20;99.90;;;3.90;100.00;97174.31;5041433;28;20565;-75
2023/03/06 03:31:11;;;;;;;5.73;4.47;;;3.20;99.90;;;3.88;100.00;97174.47;5042672;28;20541;-75
2023/03/06 03:33:41;;;;;;;7.37;4.20;;;3.10;99.90;;;3.88;100.00;97173.69;5042409;28;21245;-75
2023/03/06 03:36:10;;;;;;;10.03;4.23;;;3.20;99.90;;;3.83;100.00;97179.34;5042227;28;20472;-76
2023/03/06 03:38:40;;;;;;;9.40;4.20;;;3.10;99.90;;;3.85;100.00;97179.97;5042900;28;20464;-76
2023/03/06 03:41:11;;;;;;;10.80;5.87;;;3.10;99.90;;;3.84;100.00;97173.19;5041420;28;20470;-76
2023/03/06 03:43:41;;;;;;;8.07;4.53;;;3.10;99.90;;;3.85;100.00;97168.84;5041672;28;20528;-76
2023/03/06 03:46:11;;;;;;;7.53;4.03;;;3.10;99.90;;;3.84;100.00;97167.22;5040459;28;21402;-75
2023/03/06 03:48:41;;;;;;;7.33;4.60;;;3.10;99.90;;;3.81;100.00;97167.56;5041351;28;20565;-76
2023/03/06 03:51:15;;;;;;;7.27;4.70;;;3.10;99.90;;;3.81;100.00;97170.94;5042272;28;20470;-76
2023/03/06 03:53:45;;;;;;;6.80;4.50;;;3.10;99.90;;;3.78;100.00;97168.69;5042028;28;20462;-76
2023/03/06 03:56:16;;;;;;;7.50;5.37;;;3.10;99.90;;;3.77;100.00;97167.09;5042365;28;20492;-76
2023/03/06 03:58:47;;;;;;;7.33;5.37;;;3.00;99.90;;;3.76;100.00;97164.66;5042133;28;20553;-76
2023/03/06 04:01:17;;;;;;;7.17;4.50;;;3.10;99.90;;;3.77;100.00;97156.75;5041788;28;20884;-75
2023/03/06 04:03:47;;;;;;;5.80;4.23;;;3.00;99.90;;;3.75;100.00;97157.88;5042072;28;20482;-76
2023/03/06 04:06:16;;;;;;;8.87;5.27;;;2.90;99.90;;;3.77;100.00;97151.56;5040989;28;20481;-76
2023/03/06 04:08:46;;;;;;;8.07;5.13;;;3.00;99.90;;;3.80;100.00;97155.59;5042036;28;20465;-76
2023/03/06 04:11:18;;;;;;;10.53;5.23;;;3.10;99.90;;;3.75;100.00;97155.31;5042428;28;20465;-76
2023/03/06 04:13:47;;;;;;;8.73;4.83;;;3.00;99.90;;;3.75;100.00;97148.31;5041508;28;20488;-76
2023/03/06 04:16:17;;;;;;;10.57;5.47;;;3.00;99.90;;;3.77;100.00;97148.19;5041469;28;20480;-75
2023/03/06 04:18:47;;;;;;;7.10;4.63;;;3.10;99.90;;;3.78;100.00;97142.03;5039171;28;20468;-76
2023/03/06 04:21:16;;;;;;;12.20;5.90;;;3.20;99.90;;;3.77;100.00;97146.41;5040255;28;20514;-76
2023/03/06 04:23:47;;;;;;;10.67;4.87;;;3.20;99.90;;;3.72;100.00;97145.28;5042738;28;20578;-76
2023/03/06 04:26:18;;;;;;;9.03;5.07;;;3.10;99.90;;;3.73;100.00;97144.31;5041208;28;20461;-76
2023/03/06 04:28:48;;;;;;;7.33;4.80;;;3.00;99.90;;;3.73;100.00;97139.94;5040319;28;20464;-75
2023/03/06 04:31:18;;;;;;;9.83;5.50;;;3.00;99.90;;;3.73;100.00;97133.97;5041065;28;20465;-77
2023/03/06 04:33:47;;;;;;;22.43;5.70;;;2.90;99.90;;;3.74;100.00;97138.16;5040453;28;20493;-76
2023/03/06 04:36:28;;;;;;;8.93;5.63;;;3.00;99.90;;;3.74;100.00;97138.16;5043680;28;20877;-76
2023/03/06 04:38:58;;;;;;;10.07;5.40;;;2.90;99.90;;;3.74;100.00;97130.41;5041493;28;20462;-76
2023/03/06 04:41:29;;;;;;;9.77;5.87;;;2.90;99.90;;;3.72;100.00;97132.34;5042662;28;20461;-75
2023/03/06 04:44:00;;;;;;;8.30;6.03;;;2.90;99.90;;;3.73;100.00;97124.44;5044099;28;20536;-76
2023/03/06 04:46:29;;;;;;;9.20;5.70;;;3.00;99.90;;;3.72;100.00;97127.97;5043827;28;20515;-75
2023/03/06 04:48:59;;;;;;;12.93;5.20;;;3.00;99.90;;;3.71;100.00;97120.41;5043515;28;20480;-75
2023/03/06 04:51:29;;;;;;;8.63;4.87;;;3.00;99.90;;;3.71;100.00;97125.59;5042440;28;20531;-75
2023/03/06 04:53:59;;;;;;;9.40;5.50;;;3.00;99.90;;;3.68;100.00;97121.53;5046124;28;20475;-75
2023/03/06 04:56:30;;;;;;;8.93;6.00;;;2.90;99.90;;;3.68;100.00;97125.91;5048269;28;20519;-76
2023/03/06 04:59:01;;;;;;;12.60;5.90;;;2.90;99.90;;;3.68;100.00;97116.34;5048311;28;20540;-76
2023/03/06 05:01:31;;;;;;;12.63;5.77;;;2.90;99.90;;;3.68;100.00;97116.34;5045627;28;20461;-76
2023/03/06 05:04:00;;;;;;;9.03;5.63;;;2.90;99.90;;;3.68;100.00;97120.75;5046544;28;20483;-75
2023/03/06 05:06:31;;;;;;;9.00;5.80;;;2.90;99.90;;;3.66;100.00;97115.72;5047084;28;20469;-75
2023/03/06 05:09:01;;;;;;;11.37;6.73;;;2.90;99.90;;;3.68;100.00;97123.34;5047025;28;20826;-76
2023/03/06 05:11:32;;;;;;;9.90;5.63;;;2.90;99.90;;;3.67;100.00;97121.72;5046625;28;20552;-76
2023/03/06 05:14:02;;;;;;;11.90;6.13;;;2.90;99.90;;;3.69;100.00;97119.75;5047619;28;20468;-76
2023/03/06 05:16:32;;;;;;;7.70;4.83;;;3.00;99.90;;;3.67;100.00;97119.13;5047703;28;20469;-75
2023/03/06 05:19:02;;;;;;;12.63;6.10;;;3.00;99.90;;;3.65;100.00;97113.31;5047094;28;20466;-76
2023/03/06 05:21:31;;;;;;;7.90;5.23;;;2.90;99.90;;;3.63;100.00;97112.69;5045777;28;21074;-75
2023/03/06 05:24:00;;;;;;;7.70;5.10;;;2.80;99.90;;;3.63;100.00;97113.47;5046653;28;20492;-74
2023/03/06 05:26:30;;;;;;;11.03;5.93;;;2.90;99.90;;;3.63;100.00;97117.84;5042919;28;20465;-76
2023/03/06 05:29:00;;;;;;;7.33;5.23;;;2.80;99.90;;;3.64;100.00;97117.69;5042502;28;20465;-76
2023/03/06 05:31:30;;;;;;;9.07;4.93;;;2.90;99.90;;;3.63;100.00;97108.31;5041323;28;21072;-76
2023/03/06 05:34:00;;;;;;;8.33;5.07;;;2.80;99.90;;;3.65;100.00;97100.38;5042456;28;20995;-76
2023/03/06 05:36:30;;;;;;;8.00;5.57;;;2.90;99.90;;;3.62;100.00;97101.53;5043739;28;20954;-76
2023/03/06 05:39:00;;;;;;;8.93;5.63;;;2.80;99.90;;;3.63;100.00;97102.34;5041482;28;20511;-76
2023/03/06 05:41:31;;;;;;;9.83;5.57;;;2.80;99.90;;;3.64;100.00;97109.94;5042456;28;20534;-76
2023/03/06 05:44:00;;;;;;;9.87;6.47;;;2.80;99.90;;;3.62;100.00;97101.53;5042181;28;20481;-73
2023/03/06 05:46:30;;;;;;;12.70;7.70;;;2.90;99.90;;;3.63;100.00;97094.59;5042818;28;21044;-76
2023/03/06 05:49:01;;;;;;;10.90;6.30;;;2.90;99.90;;;3.61;100.00;97099.91;5045933;28;20469;-76
2023/03/06 05:51:31;;;;;;;9.70;5.60;;;2.80;99.90;;;3.56;100.00;97099.63;5046538;28;20556;-75
2023/03/06 05:54:01;;;;;;;7.43;4.50;;;2.80;99.90;;;3.54;100.00;97094.59;5045946;28;20472;-76
2023/03/06 05:56:31;;;;;;;8.77;5.30;;;2.80;99.90;;;3.54;100.00;97104.13;5047430;28;20538;-76
2023/03/06 05:59:01;;;;;;;6.90;4.53;;;2.80;99.90;;;3.54;100.00;97104.94;5044091;28;20468;-76
2023/03/06 06:01:32;;;;;;;11.87;6.20;;;2.70;99.90;;;3.55;100.00;97106.56;5045368;28;20986;-76
2023/03/06 06:04:02;;;;;;;10.27;5.80;;;2.90;99.90;;;3.56;100.00;97107.38;5043147;28;20489;-76
2023/03/06 06:06:32;;;;;;;6.90;4.47;;;2.80;99.90;;;3.55;100.00;97106.56;5047102;28;20489;-76
2023/03/06 06:09:02;;;;;;;7.20;4.87;;;2.80;99.90;;;3.57;100.00;97110.75;5046109;28;20462;-76
2023/03/06 06:11:33;;;;;;;8.20;4.83;;;2.80;99.90;;;3.54;100.00;97110.09;5045092;28;20493;-76
2023/03/06 06:14:03;;;;;;;7.23;4.77;;;2.80;99.90;;;3.53;100.00;97113.69;5042575;28;20519;-76
2023/03/06 06:16:32;;;;;;;14.13;5.63;;;2.80;99.90;;;3.55;100.00;97110.91;5043471;28;20468;-76
2023/03/06 06:19:02;;;;;;;11.07;5.93;;;2.70;99.90;;;3.52;100.00;97113.84;5046396;28;20461;-76
2023/03/06 06:21:34;;;;;;;6.50;4.40;;;2.70;99.90;;;3.53;100.00;97111.09;5045785;28;20528;-76
2023/03/06 06:24:04;;;;;;;11.63;5.50;;;2.70;99.90;;;3.53;100.00;97123.22;5044828;28;20480;-76
2023/03/06 06:26:35;;;;;;;10.17;5.33;;;2.80;99.90;;;3.49;100.00;97112.41;5043425;28;20461;-76
2023/03/06 06:29:05;;;;;;;12.10;5.40;;;2.80;99.90;;;3.51;100.00;97122.56;5045473;28;20472;-75
2023/03/06 06:31:35;;;;;;;9.27;5.63;;;2.70;99.90;;;3.49;100.00;97117.56;5045761;28;20496;-76
2023/03/06 06:34:05;;;;;;;12.83;6.30;;;2.70;99.90;;;3.49;100.00;97120.16;5042795;28;20921;-76
2023/03/06 06:36:36;;;;;;;8.17;5.20;;;2.70;99.90;;;3.52;100.00;97122.41;5042638;28;20460;-76
2023/03/06 06:39:06;;;;;;;7.40;5.10;;;2.80;99.90;;;3.53;100.00;97116.28;5041768;28;20558;-76
2023/03/06 06:41:38;;;;;;;10.13;5.67;;;2.80;99.90;;;3.51;100.00;97118.19;5043685;28;20591;-75
2023/03/06 06:44:27;;;;;;;9.17;5.57;;;2.80;99.90;;;3.51;100.00;97109.63;5044462;28;20485;-75
2023/03/06 06:46:57;;;;;;;12.83;5.20;;;2.70;99.90;;;3.54;100.00;97110.09;5045136;28;20527;-75
2023/03/06 06:49:51;;;;;;;9.97;5.77;;;2.80;99.90;;;3.54;100.00;97107.53;5041345;28;21240;-74
2023/03/06 06:52:21;;;;;;;8.97;5.00;;;2.90;99.90;;;3.53;100.00;97102.53;5041903;28;20472;-76
2023/03/06 06:54:51;;;;;;;8.47;5.97;;;2.80;99.90;;;3.52;100.00;97104.31;5043016;28;20548;-76
2023/03/06 06:57:22;;;;;;;8.93;5.10;;;2.80;99.90;;;3.53;100.00;97105.94;5043242;28;20461;-76
2023/03/06 06:59:51;;;;;;;9.43;5.60;;;2.80;99.90;;;3.52;100.00;97101.72;5043958;28;20564;-76
2023/03/06 07:02:22;;;;;;;11.20;6.30;;;2.70;99.90;;;3.53;100.00;97105.94;5040912;28;20461;-77
2023/03/06 07:04:52;;;;;;;10.60;6.13;;;2.80;99.90;;;3.56;100.00;97102.19;5041660;28;20496;-76
2023/03/06 07:07:35;;;;;;;11.70;5.37;;;2.80;99.90;;;3.60;100.00;97108.66;5041862;28;20453;-76
2023/03/06 07:10:08;;;;;;;11.50;6.70;;;2.90;99.90;;;3.59;100.00;97103.63;5044363;28;20487;-76
2023/03/06 07:12:39;;;;;;;13.60;7.20;;;2.80;99.90;;;3.61;100.00;97106.88;5042070;28;20479;-76
2023/03/06 07:15:13;;;;;;;11.20;6.97;;;2.90;99.90;;;3.61;100.00;97104.28;5040932;28;20560;-75
2023/03/06 07:17:43;;;;;;;11.37;7.00;;;2.90;99.90;;;3.61;100.00;97109.47;5041415;28;20474;-76
2023/03/06 07:20:13;;;;;;;9.53;6.43;;;2.90;99.90;;;3.60;100.00;97106.06;5042479;28;20995;-76
2023/03/06 07:22:43;;;;;;;12.47;7.80;;;2.90;99.90;;;3.65;100.00;97108.13;5042081;28;20489;-75
2023/03/06 07:25:20;;;;;;;14.93;6.60;;;3.00;99.90;;;3.66;100.00;97114.91;5040185;28;20878;-75
2023/03/06 07:27:53;;;;;;;13.10;7.90;;;3.00;99.90;;;3.69;100.00;97106.84;5040788;28;20536;-75
2023/03/06 07:30:24;;;;;;;13.90;6.90;;;3.10;99.90;;;3.66;100.00;97104.59;5042772;28;20563;-76
2023/03/06 07:32:55;;;;;;;11.37;6.70;;;3.00;99.90;;;3.67;100.00;97099.25;5042897;28;20948;-76
2023/03/06 07:35:26;;;;;;;15.77;7.87;;;2.90;99.90;;;3.69;100.00;97109.41;5042023;28;20455;-76
2023/03/06 07:37:56;;;;;;;12.23;6.83;;;3.00;99.90;;;3.71;100.00;97110.88;5040731;28;20513;-76
2023/03/06 07:40:26;;;;;;;15.27;7.80;;;3.10;99.90;;;3.72;100.00;97107.31;5040320;28;20469;-76
2023/03/06 07:42:59;;;;;;;19.20;10.17;;;3.10;99.90;;;3.74;100.00;97101.97;5042294;28;20488;-76
2023/03/06 07:45:47;;;;;;;14.10;7.77;;;3.10;99.90;;;3.75;100.00;97114.72;5040924;28;20500;-76
2023/03/06 07:48:17;;;;;;;14.33;7.43;;;3.20;99.90;;;3.77;100.00;97114.56;5043149;28;20467;-76
2023/03/06 07:50:56;;;;;;;11.80;7.20;;;3.10;99.90;;;3.78;100.00;97113.59;5040479;28;20551;-76
2023/03/06 07:53:26;;;;;;;13.60;6.90;;;3.20;99.90;;;3.82;100.00;97110.50;5040766;28;20466;-76
2023/03/06 07:55:55;;;;;;;13.27;7.50;;;3.30;99.90;;;3.81;100.00;97113.25;5040706;28;21016;-76
2023/03/06 07:58:26;;;;;;;10.33;6.90;;;3.30;99.90;;;3.78;100.00;97117.00;5041528;28;20548;-76
2023/03/06 08:00:55;;;;;;;15.97;8.47;;;3.30;99.90;;;3.80;100.00;97117.63;5039306;28;20572;-76
2023/03/06 08:03:25;;;;;;;13.03;7.30;;;3.20;99.90;;;3.83;100.00;97119.88;5040367;28;20556;-76
2023/03/06 08:05:54;;;;;;;13.00;7.57;;;3.20;99.90;;;3.87;100.00;97115.16;5042137;28;20499;-76
2023/03/06 08:08:24;;;;;;;11.67;7.40;;;3.30;99.90;;;3.84;100.00;97120.69;5042817;28;20474;-75
2023/03/06 08:10:53;;;;;;;14.53;7.03;;;3.30;99.90;;;3.83;100.00;97117.28;5039844;28;20461;-76
2023/03/06 08:13:24;;;;;;;14.80;7.60;;;3.20;99.90;;;3.86;100.00;97126.47;5040235;28;20544;-76
2023/03/06 08:15:55;;;;;;;22.10;8.30;;;3.20;99.90;;;3.88;100.00;97127.13;5043699;28;20464;-76
2023/03/06 08:18:26;;;;;;;13.80;7.27;;;3.30;99.90;;;3.92;100.00;97129.19;5043801;28;20540;-76
2023/03/06 08:21:03;;;;;;;12.33;7.47;;;3.40;99.90;;;3.90;100.00;97120.81;5041068;28;20469;-76
2023/03/06 08:23:34;;;;;;;13.40;7.07;;;3.40;99.90;;;3.89;100.00;97123.56;5040405;28;20468;-76
2023/03/06 08:26:08;;;;;;;15.37;6.60;;;3.40;99.90;;;3.90;100.00;97127.75;5041735;28;20485;-76
2023/03/06 08:28:38;;;;;;;15.40;8.20;;;3.40;99.90;;;3.88;100.00;97129.72;5043416;28;25825;-77
2023/03/06 08:31:12;;;;;;;13.07;7.20;;;3.40;99.90;;;3.88;100.00;97124.53;5045987;28;20464;-76
2023/03/06 08:33:41;;;;;;;10.40;7.40;;;3.40;99.90;;;3.90;100.00;97127.75;5045067;28;21027;-76
2023/03/06 08:36:10;;;;;;;13.20;7.40;;;3.40;99.90;;;3.88;100.00;97127.13;5044723;28;20461;-76
2023/03/06 08:38:40;;;;;;;14.73;6.40;;;3.40;99.90;;;3.91;100.00;97122.44;5044193;28;20714;-75
2023/03/06 08:41:10;;;;;;;10.67;7.43;;;3.40;99.90;;;3.99;100.00;97124.19;5044023;28;20968;-76
2023/03/06 08:43:42;;;;;;;20.00;7.53;;;3.50;99.90;;;4.00;100.00;97124.00;5044324;28;20475;-76
2023/03/06 08:46:12;;;;;;;14.53;7.80;;;3.50;99.90;;;3.96;100.00;97127.06;5045231;28;20533;-76
2023/03/06 08:48:41;;;;;;;14.27;8.37;;;3.50;99.90;;;3.96;100.00;97127.06;5045050;28;20468;-76
2023/03/06 08:51:12;;;;;;;12.90;6.90;;;3.50;99.90;;;4.01;100.00;97122.22;5045427;28;20458;-76
2023/03/06 08:53:42;;;;;;;9.10;6.57;;;3.50;99.90;;;4.06;100.00;97130.28;5046041;28;20461;-76
2023/03/06 08:56:21;;;;;;;12.70;7.37;;;3.50;99.90;;;4.11;100.00;97133.16;5045049;28;20480;-76
2023/03/06 08:58:54;;;;;;;12.43;6.93;;;3.50;99.90;;;4.16;100.00;97130.88;5044143;28;20462;-76
2023/03/06 09:01:28;;;;;;;61.27;24.33;;;3.60;99.90;;;4.18;100.00;97128.94;5045234;28;20453;-76
2023/03/06 09:04:00;;;;;;;16.03;8.03;;;3.70;99.90;;;4.18;100.00;97133.28;5045023;28;20457;-75
2023/03/06 09:06:33;;;;;;;10.53;6.53;;;3.70;99.90;;;4.15;100.00;97120.69;5043270;28;20873;-76
2023/03/06 09:09:02;;;;;;;19.17;7.90;;;3.60;99.90;;;4.17;100.00;97124.72;5043604;28;20468;-76
2023/03/06 09:11:32;;;;;;;16.63;7.23;;;3.70;99.90;;;4.20;100.00;97126.97;5044787;28;20488;-75
2023/03/06 09:14:04;;;;;;;11.77;7.07;;;3.60;99.90;;;4.24;100.00;97124.84;5045118;28;20462;-76
2023/03/06 09:16:34;;;;;;;12.23;7.87;;;3.70;99.90;;;4.26;100.00;97125.50;5044144;28;20544;-76
2023/03/06 09:19:06;;;;;;;11.00;6.40;;;3.70;99.90;;;4.28;100.00;97133.88;5045299;28;20467;-76
2023/03/06 09:21:35;;;;;;;15.43;7.10;;;3.70;99.90;;;4.31;100.00;97136.13;5042031;28;20566;-76
2023/03/06 09:24:06;;;;;;;12.17;7.17;;;3.80;99.90;;;4.29;100.00;97125.97;5042867;28;20483;-76
2023/03/06 09:26:35;;;;;;;19.10;10.37;;;3.70;99.90;;;4.28;100.00;97128.72;5043513;28;20547;-74
2023/03/06 09:29:16;;;;;;;14.37;7.83;;;3.70;99.90;;;4.32;100.00;97128.22;5044275;28;20547;-76
2023/03/06 09:31:46;;;;;;;11.23;7.00;;;3.80;99.90;;;4.38;100.00;97124.94;5043562;28;20470;-76
2023/03/06 09:34:16;;;;;;;21.20;7.57;;;3.90;99.90;;;4.42;100.00;97126.19;5042670;28;20484;-76
2023/03/06 09:36:46;;;;;;;23.57;9.40;;;3.90;99.90;;;4.46;100.00;97127.47;5044528;28;20458;-76
2023/03/06 09:39:27;;;;;;;19.60;9.17;;;4.00;99.90;;;4.51;100.00;97130.34;5042545;28;20492;-76
2023/03/06 09:41:58;;;;;;;34.13;17.17;;;4.00;99.90;;;4.52;100.00;97124.19;5044812;28;20511;-74
2023/03/06 09:44:32;;;;;;;14.83;9.07;;;4.00;99.90;;;4.58;100.00;97130.47;5043211;28;20873;-76
2023/03/06 09:47:22;;;;;;;13.90;7.70;;;4.10;99.90;;;4.66;100.00;97130.41;5044411;28;20530;-76
2023/03/06 09:50:08;;;;;;;11.83;6.93;;;4.10;99.90;;;4.70;100.00;97123.91;5045307;28;20465;-75
2023/03/06 09:52:51;;;;;;;17.20;8.00;;;4.10;99.90;;;4.68;100.00;97125.88;5046123;28;20480;-75
2023/03/06 09:55:25;;;;;;;15.03;7.33;;;4.10;99.90;;;4.72;100.00;97121.16;5046730;28;20558;-76
2023/03/06 09:58:01;;;;;;;12.53;7.37;;;4.10;99.90;;;4.63;100.00;97129.94;5044683;28;21035;-75
2023/03/06 10:00:38;;;;;;;17.50;7.67;;;4.10;99.90;;;4.64;100.00;97119.44;5047414;28;20843;-76
2023/03/06 10:03:27;;;;;;;11.90;6.83;;;4.10;99.90;;;4.59;100.00;97124.31;5046132;28;20493;-76
2023/03/06 10:06:09;;;;;;;10.13;6.70;;;3.90;99.90;;;4.63;100.00;97122.19;5045173;28;20473;-76
2023/03/06 10:08:50;;;;;;;14.50;7.03;;;4.00;99.90;;;4.69;100.00;97130.06;5045722;28;20562;-76
2023/03/06 10:11:31;;;;;;;15.50;7.57;;;4.00;99.90;;;4.69;100.00;97126.66;5046433;28;21522;-75
2023/03/06 10:14:17;;;;;;;15.00;7.90;;;4.00;99.90;;;4.69;100.00;97131.84;5045473;28;20484;-75
2023/03/06 10:16:48;;;;;;;10.93;6.87;;;4.00;99.90;;;4.68;100.00;97130.25;5045325;28;20467;-76
2023/03/06 10:19:20;;;;;;;16.63;8.23;;;4.00;99.90;;;4.69;100.00;97131.84;5047508;28;20868;-75
2023/03/06 10:21:59;;;;;;;13.10;6.97;;;4.10;99.90;;;4.70;100.00;97125.69;5046383;28;21016;-76
2023/03/06 10:25:04;;;;;;;11.90;6.50;;;4.10;99.90;;;4.75;100.00;97126.00;5046999;28;20513;-75
2023/03/06 10:27:45;;;;;;;9.70;6.73;;;4.10;99.90;;;4.80;100.00;97123.66;5045999;28;20494;-76
2023/03/06 10:30:52;;;;;;;13.40;7.60;;;4.20;99.90;;;4.78;100.00;97121.28;5045862;28;20471;-75
2023/03/06 10:33:47;;;;;;;12.10;7.23;;;4.20;99.90;;;4.81;100.00;97120.13;5046081;28;20495;-75
2023/03/06 10:36:18;;;;;;;14.87;7.27;;;4.20;99.90;;;4.88;100.00;97118.44;5045338;28;20472;-76
2023/03/06 10:38:49;;;;;;;18.10;7.60;;;4.30;99.90;;;4.93;100.00;97118.69;5046020;28;20471;-76
2023/03/06 10:41:27;;;;;;;11.90;7.03;;;4.30;99.90;;;5.00;100.00;97123.03;5044756;28;20940;-75
2023/03/06 10:44:23;;;;;;;12.90;7.43;;;4.40;99.90;;;5.00;100.00;97115.25;5044505;28;20467;-75